»·PEaware :: N196EC L17-KSAN

N196EC :: L17-KSAN

FLIGHT INFORMATION

Flight Status: Arrived
Operator: Privately registered:
United States
More flights under this callsign
Pilot: Adrián R. (20842)
Aircraft: SOCATA TBM-900
(TBM9)
More flights by this aircraft type
Origin: L17 Taft-Kern Co
United States
Destination: KSAN San Diego Intl-Lindbergh
United States
More flights between these airports :: More routes between these airports
Route: REYES J1 LAX COMIX2
File this flight plan on PilotEdge
Remarks:
Altitude:
(Current/Filed)
25,000ft
Speed:
(Current/Filed)
310kts
Departed: 25-Nov-18 10:25 AM
Arrived: 25-Nov-18 11:12 AM
Distance/Time
Traveled:
183nm/0:46
Distance/Time
To Go:
Arrived

Flight Plot

Page will automatically refresh every two minutes.

Flight plan parsing failed; only flown route is shown


Map Options




Map Legend


Flown Route
Filed Route
Departure Airport
Arrival Airport
Navaid (VOR, NDB)
Fix

Horizontal Profiles

Position Reports

Time Latitude Longitude Heading Altitude Ground
Speed
25-Nov-18 10:02 35.141078 -119.444834 46 830ft 0kts
25-Nov-18 10:03 35.141078 -119.444834 46 830ft 0kts
25-Nov-18 10:04 35.141078 -119.444834 46 830ft 0kts
25-Nov-18 10:05 35.141078 -119.444834 46 830ft 0kts
25-Nov-18 10:06 35.141078 -119.444834 46 830ft 0kts
25-Nov-18 10:07 35.141078 -119.444834 46 830ft 0kts
25-Nov-18 10:08 35.141078 -119.444834 46 830ft 0kts
25-Nov-18 10:09 35.141078 -119.444834 46 830ft 0kts
25-Nov-18 10:10 35.141078 -119.444834 46 830ft 0kts
25-Nov-18 10:11 35.141078 -119.444834 46 830ft 0kts
25-Nov-18 10:12 35.141078 -119.444834 46 830ft 0kts
25-Nov-18 10:13 35.141078 -119.444834 46 830ft 0kts
25-Nov-18 10:14 35.141078 -119.444834 46 830ft 0kts
25-Nov-18 10:15 35.141078 -119.444834 46 830ft 0kts
25-Nov-18 10:16 35.141078 -119.444834 46 830ft 0kts
25-Nov-18 10:17 35.141078 -119.444834 46 830ft 0kts
25-Nov-18 10:18 35.141078 -119.444834 46 830ft 0kts
25-Nov-18 10:19 35.141078 -119.444834 46 830ft 0kts
25-Nov-18 10:20 35.141078 -119.444834 46 830ft 0kts
25-Nov-18 10:21 35.140549 -119.445304 97 830ft 0kts
25-Nov-18 10:22 35.140548 -119.445293 100 830ft 0kts
25-Nov-18 10:23 35.140548 -119.445294 100 830ft 0kts
25-Nov-18 10:24 35.140548 -119.445294 100 830ft 0kts
25-Nov-18 10:25 35.140548 -119.445294 100 830ft 0kts
25-Nov-18 10:26 35.140548 -119.445294 100 830ft 0kts
25-Nov-18 10:27 35.140548 -119.445292 100 830ft 0kts
25-Nov-18 10:28 35.142339 -119.433552 81 1035ft 115kts
25-Nov-18 10:29 35.131922 -119.395235 155 3269ft 137kts
25-Nov-18 10:30 35.096857 -119.375651 155 5622ft 144kts
25-Nov-18 10:31 35.056864 -119.353480 155 7392ft 174kts
25-Nov-18 10:32 35.012246 -119.328789 155 9736ft 182kts
25-Nov-18 10:33 34.965334 -119.302863 155 12063ft 191kts
25-Nov-18 10:34 34.916133 -119.275711 156 14308ft 200kts
25-Nov-18 10:35 34.866170 -119.248184 157 16464ft 207kts
25-Nov-18 10:36 34.813153 -119.219012 158 18616ft 214kts
25-Nov-18 10:37 34.758067 -119.188757 159 20679ft 222kts
25-Nov-18 10:38 34.701207 -119.157571 159 22768ft 229kts
25-Nov-18 10:39 34.636198 -119.115340 147 22936ft 296kts
25-Nov-18 10:40 34.566324 -119.056670 147 23086ft 314kts
25-Nov-18 10:41 34.495356 -118.997121 148 23927ft 295kts
25-Nov-18 10:42 34.430082 -118.942559 148 25087ft 294kts
25-Nov-18 10:43 34.359512 -118.883523 146 25087ft 318kts
25-Nov-18 10:44 34.292085 -118.812333 141 25084ft 324kts
25-Nov-18 10:45 34.224699 -118.740602 141 25083ft 324kts
25-Nov-18 10:46 34.157170 -118.668867 142 25085ft 324kts
25-Nov-18 10:47 34.089635 -118.597279 141 25085ft 324kts
25-Nov-18 10:48 34.021929 -118.525668 142 25084ft 324kts
25-Nov-18 10:49 33.954224 -118.454215 141 25084ft 324kts
25-Nov-18 10:50 33.890823 -118.377109 135 25086ft 326kts
25-Nov-18 10:51 33.830909 -118.299590 136 25080ft 326kts
25-Nov-18 10:52 33.769259 -118.219757 135 25081ft 326kts
25-Nov-18 10:53 33.708334 -118.139714 135 25081ft 325kts
25-Nov-18 10:54 33.647194 -118.059531 135 25081ft 326kts
25-Nov-18 10:55 33.586058 -117.979537 135 25078ft 326kts
25-Nov-18 10:56 33.521925 -117.900012 138 24208ft 338kts
25-Nov-18 10:57 33.454044 -117.821252 138 23223ft 341kts
25-Nov-18 10:58 33.384130 -117.745320 140 21836ft 339kts
25-Nov-18 10:59 33.314158 -117.670608 140 20375ft 336kts
25-Nov-18 11:00 33.245547 -117.597582 140 19015ft 322kts
25-Nov-18 11:01 33.179649 -117.528177 140 17442ft 313kts
25-Nov-18 11:02 33.112912 -117.463330 146 15389ft 308kts
25-Nov-18 11:03 33.044209 -117.406077 145 13522ft 297kts
25-Nov-18 11:04 32.978068 -117.350595 144 11773ft 284kts
25-Nov-18 11:05 32.914971 -117.297767 144 10286ft 276kts
25-Nov-18 11:06 32.853820 -117.246915 144 8790ft 251kts
25-Nov-18 11:07 32.806124 -117.198656 133 7120ft 211kts
25-Nov-18 11:08 32.775411 -117.144232 104 5297ft 197kts
25-Nov-18 11:09 32.761774 -117.084146 104 3901ft 170kts
25-Nov-18 11:10 32.743157 -117.034451 164 2420ft 171kts
25-Nov-18 11:11 32.712358 -117.064636 252 1740ft 135kts
25-Nov-18 11:12 32.713429 -117.104874 280 1557ft 120kts
25-Nov-18 11:13 32.721562 -117.141142 289 1136ft 90kts
25-Nov-18 11:14 32.728485 -117.169054 287 341ft 85kts
25-Nov-18 11:15 32.733706 -117.188122 1 17ft 12kts
25-Nov-18 11:16 32.733960 -117.186583 105 18ft 10kts
25-Nov-18 11:17 32.732947 -117.182387 106 17ft 12kts
25-Nov-18 11:18 32.732167 -117.179174 105 17ft 8kts
25-Nov-18 11:19 32.732478 -117.177362 124 20ft 1kts
25-Nov-18 11:20 32.732284 -117.177349 197 20ft 0kts
25-Nov-18 11:21 32.732284 -117.177349 197 20ft 0kts
25-Nov-18 11:22 32.732285 -117.177349 197 20ft 0kts
25-Nov-18 11:23 32.732285 -117.177349 197 20ft 0kts
25-Nov-18 11:24 32.732285 -117.177349 197 20ft 0kts
25-Nov-18 11:25 32.732284 -117.177349 197 20ft 0kts
25-Nov-18 11:26 32.732284 -117.177349 197 20ft 0kts
25-Nov-18 11:27 32.732284 -117.177349 197 20ft 0kts

Navigation Log

Ident Type
Flight plan parsing failed, navigation log unavailable